createdAt,value
2019-02-22T00:00:49.318Z,46.16
2019-02-22T00:03:17.934Z,45.38
2019-02-22T00:05:46.559Z,44.02
2019-02-22T00:08:15.213Z,43.34
2019-02-22T00:10:43.837Z,43.34
2019-02-22T00:13:12.466Z,44.53
2019-02-22T00:15:41.193Z,44.53
2019-02-22T00:18:09.889Z,43.80
2019-02-22T00:20:41.110Z,44.76
2019-02-22T00:23:08.960Z,43.21
2019-02-22T00:25:37.585Z,43.93
2019-02-22T00:28:06.211Z,45.34
2019-02-22T00:30:34.875Z,44.20
2019-02-22T00:33:03.598Z,46.01
2019-02-22T00:35:32.235Z,45.43
2019-02-22T00:38:00.878Z,45.43
2019-02-22T00:40:29.500Z,43.54
2019-02-22T00:42:58.163Z,43.76
2019-02-22T00:45:26.783Z,44.47
2019-02-22T00:47:55.400Z,45.36
2019-02-22T00:50:24.027Z,44.91
2019-02-22T00:52:52.680Z,44.77
2019-02-22T00:55:21.300Z,45.59
2019-02-22T00:57:49.930Z,45.73
2019-02-22T01:00:18.598Z,44.42
2019-02-22T01:02:47.209Z,44.15
2019-02-22T01:05:15.830Z,44.66
2019-02-22T01:07:44.490Z,45.97
2019-02-22T01:10:13.208Z,45.74
2019-02-22T01:12:41.846Z,46.05
2019-02-22T01:15:10.496Z,46.19
2019-02-22T01:17:39.133Z,44.76
2019-02-22T01:20:07.931Z,44.76
2019-02-22T01:22:36.598Z,44.68
2019-02-22T01:25:05.890Z,44.51
2019-02-22T01:27:34.501Z,44.70
2019-02-22T01:30:03.150Z,46.06
2019-02-22T01:32:31.773Z,45.36
2019-02-22T01:35:00.396Z,46.21
2019-02-22T01:37:29.114Z,46.59
2019-02-22T01:39:57.733Z,45.81
2019-02-22T01:42:26.372Z,45.35
2019-02-22T01:44:55.029Z,45.02
2019-02-22T01:47:23.713Z,45.02
2019-02-22T01:49:52.347Z,45.28
2019-02-22T01:52:20.995Z,45.28
2019-02-22T01:54:49.611Z,45.30
2019-02-22T01:57:18.236Z,43.22
2019-02-22T01:59:46.898Z,45.21
2019-02-22T02:02:15.582Z,46.40
2019-02-22T02:04:44.212Z,45.15
2019-02-22T02:07:12.864Z,45.15
2019-02-22T02:09:41.561Z,44.49
2019-02-22T02:12:10.175Z,44.21
2019-02-22T02:14:38.826Z,45.47
2019-02-22T02:17:07.450Z,45.99
2019-02-22T02:19:36.128Z,46.32
2019-02-22T02:22:04.804Z,45.35
2019-02-22T02:24:33.447Z,44.47
2019-02-22T02:27:02.046Z,45.57
2019-02-22T02:29:30.686Z,45.57
2019-02-22T02:31:59.380Z,46.17
2019-02-22T02:34:28.106Z,46.17
2019-02-22T02:36:56.769Z,44.92
2019-02-22T02:39:25.400Z,44.92
2019-02-22T02:41:54.025Z,45.10
2019-02-22T02:44:22.761Z,45.43
2019-02-22T02:46:51.387Z,45.07
2019-02-22T02:49:20.020Z,45.07
2019-02-22T02:51:48.669Z,45.00
2019-02-22T02:54:17.299Z,46.12
2019-02-22T02:56:46.428Z,45.99
2019-02-22T02:59:15.120Z,46.02
2019-02-22T03:01:43.828Z,46.02
2019-02-22T03:04:12.445Z,46.25
2019-02-22T03:06:42.754Z,46.03
2019-02-22T03:09:11.391Z,46.03
2019-02-22T03:11:40.080Z,45.69
2019-02-22T03:14:08.743Z,45.69
2019-02-22T03:16:37.431Z,46.42
2019-02-22T03:19:06.063Z,45.45
2019-02-22T03:21:34.711Z,46.83
2019-02-22T03:24:03.341Z,46.41
2019-02-22T03:26:31.954Z,46.41
2019-02-22T03:29:00.629Z,45.55
2019-02-22T03:31:29.441Z,45.23
2019-02-22T03:33:58.003Z,47.18
2019-02-22T03:36:26.660Z,47.18
2019-02-22T03:38:55.289Z,44.91
2019-02-22T03:41:32.931Z,44.91
2019-02-22T03:43:56.020Z,46.84
2019-02-22T03:46:24.647Z,46.70
2019-02-22T03:48:53.282Z,46.71
2019-02-22T03:51:21.991Z,47.19
2019-02-22T03:53:51.386Z,47.19
2019-02-22T03:56:20.014Z,46.54
2019-02-22T03:58:48.679Z,46.13
2019-02-22T04:01:17.383Z,46.40
2019-02-22T04:03:46.009Z,46.84
2019-02-22T04:06:14.755Z,46.93
2019-02-22T04:08:43.448Z,45.43
2019-02-22T04:11:12.074Z,45.43
2019-02-22T04:13:40.807Z,45.65
2019-02-22T04:16:09.508Z,47.64
2019-02-22T04:18:38.134Z,46.62
2019-02-22T04:21:06.841Z,46.62
2019-02-22T04:23:35.476Z,46.07
2019-02-22T04:26:04.170Z,46.07
2019-02-22T04:28:32.845Z,45.03
2019-02-22T04:31:01.473Z,45.03
2019-02-22T04:33:30.097Z,44.82
2019-02-22T04:35:58.783Z,44.82
2019-02-22T04:38:27.402Z,44.91
2019-02-22T04:40:56.037Z,45.15
2019-02-22T04:43:24.691Z,46.26
2019-02-22T04:45:53.397Z,47.11
2019-02-22T04:48:22.013Z,45.98
2019-02-22T04:50:50.680Z,44.45
2019-02-22T04:53:19.322Z,46.23
2019-02-22T04:55:47.938Z,45.60
2019-02-22T04:58:16.593Z,47.15
2019-02-22T05:00:45.289Z,47.15
2019-02-22T05:03:13.915Z,46.69
2019-02-22T05:05:43.733Z,46.19
2019-02-22T05:08:12.288Z,46.44
2019-02-22T05:10:40.980Z,47.36
2019-02-22T05:13:09.639Z,46.44
2019-02-22T05:15:38.263Z,45.94
2019-02-22T05:18:06.961Z,44.79
2019-02-22T05:20:35.681Z,44.59
2019-02-22T05:23:07.308Z,44.36
2019-02-22T05:25:34.666Z,44.36
2019-02-22T05:28:04.114Z,46.25
2019-02-22T05:30:32.748Z,47.19
2019-02-22T05:33:01.379Z,46.89
2019-02-22T05:35:30.124Z,46.06
2019-02-22T05:37:58.808Z,46.06
2019-02-22T05:40:27.440Z,46.57
2019-02-22T05:42:56.117Z,45.96
2019-02-22T05:45:24.754Z,45.96
2019-02-22T05:47:53.397Z,45.54
2019-02-22T05:50:22.062Z,46.10
2019-02-22T05:52:50.697Z,46.97
2019-02-22T05:55:19.397Z,46.86
2019-02-22T05:57:48.073Z,46.58
2019-02-22T06:00:17.377Z,46.58
2019-02-22T06:02:46.091Z,46.55
2019-02-22T06:05:14.743Z,46.53
2019-02-22T06:07:44.329Z,46.35
2019-02-22T06:10:13.039Z,45.56
2019-02-22T06:12:41.765Z,45.72
2019-02-22T06:15:10.386Z,45.81
2019-02-22T06:17:39.024Z,46.06
2019-02-22T06:20:10.367Z,46.06
2019-02-22T06:22:39.071Z,45.32
2019-02-22T06:25:08.117Z,45.32
2019-02-22T06:27:36.765Z,46.39
2019-02-22T06:30:08.665Z,47.06
2019-02-22T06:32:37.310Z,46.79
2019-02-22T06:35:08.845Z,46.79
2019-02-22T06:37:37.221Z,45.04
2019-02-22T06:40:08.287Z,45.04
2019-02-22T06:42:45.270Z,46.52
2019-02-22T06:45:08.983Z,46.52
2019-02-22T06:47:37.600Z,46.75
2019-02-22T06:50:08.177Z,46.77
2019-02-22T06:52:36.819Z,46.75
2019-02-22T06:55:06.248Z,46.97
2019-02-22T06:57:34.917Z,46.97
2019-02-22T07:00:05.248Z,48.13
2019-02-22T07:02:33.888Z,47.61
2019-02-22T07:05:02.607Z,47.61
2019-02-22T07:07:31.237Z,46.11
2019-02-22T07:09:59.934Z,45.43
2019-02-22T07:12:32.948Z,45.73
2019-02-22T07:15:01.641Z,47.34
2019-02-22T07:17:30.261Z,47.48
2019-02-22T07:19:58.989Z,45.99
2019-02-22T07:22:27.684Z,45.63
2019-02-22T07:24:56.313Z,48.76
2019-02-22T07:27:25.000Z,47.64
2019-02-22T07:29:53.623Z,47.64
2019-02-22T07:32:22.171Z,46.51
2019-02-22T07:34:50.827Z,44.76
2019-02-22T07:37:19.501Z,46.60
2019-02-22T07:39:48.105Z,47.17
2019-02-22T07:42:16.739Z,47.70
2019-02-22T07:44:45.374Z,47.41
2019-02-22T07:47:14.048Z,49.16
2019-02-22T07:49:42.712Z,48.90
2019-02-22T07:52:11.343Z,48.18
2019-02-22T07:54:39.974Z,48.77
2019-02-22T07:57:08.709Z,49.66
2019-02-22T07:59:37.257Z,49.68
2019-02-22T08:02:06.077Z,48.69
2019-02-22T08:04:34.735Z,47.78
2019-02-22T08:07:03.356Z,48.05
2019-02-22T08:09:31.996Z,47.91
2019-02-22T08:12:00.651Z,47.47
2019-02-22T08:14:29.285Z,48.23
2019-02-22T08:16:57.843Z,47.59
2019-02-22T08:19:26.532Z,48.59
2019-02-22T08:21:55.157Z,48.80
2019-02-22T08:24:25.835Z,48.88
2019-02-22T08:26:54.175Z,48.75
2019-02-22T08:29:22.800Z,49.61
2019-02-22T08:31:51.493Z,50.27
2019-02-22T08:34:20.489Z,51.05
2019-02-22T08:36:49.122Z,50.76
2019-02-22T08:39:17.742Z,50.98
2019-02-22T08:41:46.404Z,51.58
2019-02-22T08:44:15.029Z,50.21
2019-02-22T08:46:43.722Z,50.21
2019-02-22T08:49:12.382Z,50.62
2019-02-22T08:51:41.003Z,50.62
2019-02-22T08:54:09.711Z,50.74
2019-02-22T08:56:38.401Z,50.74
2019-02-22T08:59:07.095Z,49.70
2019-02-22T09:01:35.878Z,49.67
2019-02-22T09:04:04.461Z,50.04
2019-02-22T09:06:33.094Z,50.32
2019-02-22T09:09:01.796Z,51.44
2019-02-22T09:11:30.460Z,50.98
2019-02-22T09:13:59.088Z,50.62
2019-02-22T09:16:27.711Z,52.11
2019-02-22T09:18:56.294Z,52.53
2019-02-22T09:21:24.922Z,53.65
2019-02-22T09:23:53.619Z,54.06
2019-02-22T09:26:22.282Z,53.73
2019-02-22T09:28:50.908Z,53.67
2019-02-22T09:31:19.602Z,53.29
2019-02-22T09:33:48.266Z,54.60
2019-02-22T09:36:16.889Z,54.60
2019-02-22T09:38:45.514Z,52.83
2019-02-22T09:41:14.163Z,55.38
2019-02-22T09:43:42.791Z,56.31
2019-02-22T09:46:11.414Z,56.42
2019-02-22T09:48:40.083Z,56.27
2019-02-22T09:51:08.694Z,55.74
2019-02-22T09:53:37.319Z,56.02
2019-02-22T09:56:05.963Z,55.08
2019-02-22T09:58:34.585Z,55.16
2019-02-22T10:01:03.283Z,56.17
2019-02-22T10:03:31.933Z,57.55
2019-02-22T10:06:00.559Z,55.90
2019-02-22T10:08:29.178Z,56.74
2019-02-22T10:10:57.844Z,57.07
2019-02-22T10:13:26.465Z,59.49
2019-02-22T10:15:55.088Z,58.62
2019-02-22T10:18:23.749Z,59.47
2019-02-22T10:20:52.290Z,60.12
2019-02-22T10:23:20.890Z,60.27
2019-02-22T10:25:49.551Z,60.35
2019-02-22T10:28:18.350Z,61.69
2019-02-22T10:30:47.054Z,61.94
2019-02-22T10:33:15.730Z,62.25
2019-02-22T10:35:44.355Z,62.37
2019-02-22T10:38:13.125Z,61.05
2019-02-22T10:40:41.779Z,59.86
2019-02-22T10:43:10.393Z,61.26
2019-02-22T10:45:39.013Z,60.19
2019-02-22T10:48:07.730Z,60.19
2019-02-22T10:50:36.344Z,60.74
2019-02-22T10:53:04.975Z,59.27
2019-02-22T10:55:33.558Z,58.47
2019-02-22T10:58:02.183Z,58.59
2019-02-22T11:00:30.871Z,61.25
2019-02-22T11:02:59.540Z,61.25
2019-02-22T11:05:28.160Z,61.73
2019-02-22T11:07:56.707Z,60.46
2019-02-22T11:10:25.370Z,62.01
2019-02-22T11:12:53.991Z,62.01
2019-02-22T11:15:22.606Z,60.33
2019-02-22T11:17:51.254Z,59.51
2019-02-22T11:20:19.880Z,60.99
2019-02-22T11:22:48.507Z,61.74
2019-02-22T11:25:17.574Z,61.51
2019-02-22T11:27:46.191Z,63.58
2019-02-22T11:30:15.509Z,63.78
2019-02-22T11:32:44.158Z,62.67
2019-02-22T11:35:12.783Z,62.07
2019-02-22T11:37:41.395Z,64.40
2019-02-22T11:40:11.283Z,65.15
2019-02-22T11:42:39.913Z,63.67
2019-02-22T11:45:09.632Z,64.70
2019-02-22T11:47:38.291Z,65.11
2019-02-22T11:50:09.469Z,63.92
2019-02-22T11:52:38.098Z,63.92
2019-02-22T11:55:08.445Z,63.63
2019-02-22T11:57:37.073Z,62.85
2019-02-22T12:00:13.285Z,64.14
2019-02-22T12:02:41.901Z,64.14
2019-02-22T12:05:10.526Z,61.46
2019-02-22T12:07:39.178Z,61.46
2019-02-22T12:10:08.799Z,61.81
2019-02-22T12:12:37.483Z,62.65
2019-02-22T12:15:09.043Z,62.47
2019-02-22T12:17:37.659Z,62.25
2019-02-22T12:20:07.978Z,63.17
2019-02-22T12:22:36.643Z,61.00
2019-02-22T12:25:08.015Z,62.88
2019-02-22T12:27:36.644Z,61.17
2019-02-22T12:30:08.216Z,61.31
2019-02-22T12:32:39.479Z,64.30
2019-02-22T12:35:07.292Z,64.30
2019-02-22T12:37:35.951Z,63.72
2019-02-22T12:40:06.373Z,61.36
2019-02-22T12:42:35.009Z,62.36
2019-02-22T12:45:04.241Z,63.38
2019-02-22T12:47:32.937Z,63.01
2019-02-22T12:50:01.548Z,61.84
2019-02-22T12:52:30.198Z,60.53
2019-02-22T12:54:58.890Z,62.37
2019-02-22T12:57:27.593Z,64.88
2019-02-22T12:59:56.313Z,64.88
2019-02-22T13:02:24.943Z,64.40
2019-02-22T13:04:53.565Z,63.08
2019-02-22T13:07:22.208Z,63.78
2019-02-22T13:09:50.895Z,62.21
2019-02-22T13:12:19.588Z,63.29
2019-02-22T13:14:48.248Z,63.95
2019-02-22T13:17:16.864Z,65.39
2019-02-22T13:19:45.555Z,65.39
2019-02-22T13:22:14.209Z,64.57
2019-02-22T13:24:42.899Z,64.57
2019-02-22T13:27:11.512Z,66.22
2019-02-22T13:29:40.164Z,68.06
2019-02-22T13:32:08.854Z,68.46
2019-02-22T13:34:37.544Z,66.60
2019-02-22T13:37:06.208Z,67.89
2019-02-22T13:39:34.900Z,67.89
2019-02-22T13:42:03.589Z,68.91
2019-02-22T13:44:32.308Z,69.30
2019-02-22T13:47:01.008Z,69.06
2019-02-22T13:49:29.630Z,70.33
2019-02-22T13:51:58.363Z,68.32
2019-02-22T13:54:27.052Z,68.33
2019-02-22T13:56:55.688Z,68.41
2019-02-22T13:59:24.399Z,64.78
2019-02-22T14:01:53.021Z,64.78
2019-02-22T14:04:21.717Z,65.70
2019-02-22T14:06:50.454Z,65.33
2019-02-22T14:09:19.071Z,65.33
2019-02-22T14:11:48.077Z,65.35
2019-02-22T14:14:16.684Z,67.90
2019-02-22T14:16:45.373Z,65.32
2019-02-22T14:19:13.985Z,64.59
2019-02-22T14:21:42.732Z,64.85
2019-02-22T14:24:11.344Z,65.53
2019-02-22T14:26:40.030Z,65.53
2019-02-22T14:29:08.679Z,65.43
2019-02-22T14:31:37.296Z,65.43
2019-02-22T14:34:05.978Z,66.00
2019-02-22T14:36:34.633Z,64.09
2019-02-22T14:39:04.846Z,64.09
2019-02-22T14:41:33.451Z,64.18
2019-02-22T14:44:02.173Z,64.18
2019-02-22T14:46:30.863Z,62.54
2019-02-22T14:48:59.475Z,64.01
2019-02-22T14:51:28.206Z,64.69
2019-02-22T14:53:56.969Z,64.69
2019-02-22T14:56:25.594Z,64.20
2019-02-22T14:58:54.369Z,64.20
2019-02-22T15:01:23.062Z,64.63
2019-02-22T15:03:51.760Z,64.63
2019-02-22T15:06:20.489Z,63.44
2019-02-22T15:08:49.117Z,63.44
2019-02-22T15:11:17.807Z,61.59
2019-02-22T15:13:46.529Z,61.59
2019-02-22T15:16:19.798Z,61.32
2019-02-22T15:18:48.483Z,61.32
2019-02-22T15:21:18.111Z,60.40
2019-02-22T15:23:47.099Z,60.40
2019-02-22T15:26:15.812Z,61.28
2019-02-22T15:28:44.530Z,61.13
2019-02-22T15:31:13.220Z,62.03
2019-02-22T15:33:41.907Z,62.03
2019-02-22T15:36:10.636Z,62.58
2019-02-22T15:38:39.266Z,61.63
2019-02-22T15:41:09.972Z,60.60
2019-02-22T15:43:38.406Z,60.06
2019-02-22T15:46:12.179Z,60.06
2019-02-22T15:48:37.505Z,60.46
2019-02-22T15:51:07.313Z,60.46
2019-02-22T15:53:36.128Z,60.42
2019-02-22T15:56:04.818Z,60.42
2019-02-22T15:58:33.552Z,62.37
2019-02-22T16:01:02.252Z,62.37
2019-02-22T16:03:32.514Z,62.42
2019-02-22T16:06:01.226Z,60.91
2019-02-22T16:08:29.922Z,60.91
2019-02-22T16:10:58.616Z,62.03
2019-02-22T16:13:27.347Z,61.81
2019-02-22T16:15:56.036Z,61.81
2019-02-22T16:18:24.724Z,62.88
2019-02-22T16:20:53.455Z,60.92
2019-02-22T16:23:22.150Z,60.92
2019-02-22T16:25:50.848Z,60.92
2019-02-22T16:28:19.638Z,61.05
2019-02-22T16:30:48.340Z,61.05
2019-02-22T16:33:17.025Z,61.95
2019-02-22T16:35:45.746Z,62.51
2019-02-22T16:38:14.427Z,61.40
2019-02-22T16:40:43.120Z,62.04
2019-02-22T16:43:11.831Z,61.17
2019-02-22T16:45:40.528Z,61.17
2019-02-22T16:48:09.214Z,61.88
2019-02-22T16:50:37.934Z,62.11
2019-02-22T16:53:06.624Z,62.11
2019-02-22T16:55:35.330Z,62.95
2019-02-22T16:58:04.823Z,62.26
2019-02-22T17:00:33.524Z,62.39
2019-02-22T17:03:02.232Z,63.67
2019-02-22T17:05:31.185Z,63.67
2019-02-22T17:07:59.873Z,63.33
2019-02-22T17:10:28.566Z,63.64
2019-02-22T17:12:57.309Z,61.51
2019-02-22T17:15:25.995Z,61.51
2019-02-22T17:17:56.151Z,59.47
2019-02-22T17:20:24.867Z,62.13
2019-02-22T17:22:53.565Z,64.91
2019-02-22T17:25:22.456Z,64.91
2019-02-22T17:27:51.171Z,64.84
2019-02-22T17:30:24.158Z,63.44
2019-02-22T17:32:52.862Z,62.72
2019-02-22T17:35:21.587Z,63.10
2019-02-22T17:37:50.284Z,64.95
2019-02-22T17:40:21.174Z,65.57
2019-02-22T17:42:49.899Z,66.44
2019-02-22T17:45:18.591Z,65.33
2019-02-22T17:47:47.312Z,64.97
2019-02-22T17:50:16.032Z,64.86
2019-02-22T17:52:44.742Z,67.00
2019-02-22T17:55:13.429Z,65.25
2019-02-22T17:57:42.949Z,65.34
2019-02-22T18:00:19.873Z,67.98
2019-02-22T18:02:48.597Z,67.98
2019-02-22T18:05:17.284Z,67.92
2019-02-22T18:07:45.981Z,66.64
2019-02-22T18:10:17.379Z,67.15
2019-02-22T18:12:46.675Z,65.36
2019-02-22T18:15:16.679Z,66.46
2019-02-22T18:17:46.515Z,66.46
2019-02-22T18:20:15.205Z,66.36
2019-02-22T18:22:43.910Z,67.35
2019-02-22T18:25:12.858Z,65.90
2019-02-22T18:27:41.552Z,64.54
2019-02-22T18:30:13.193Z,66.66
2019-02-22T18:32:41.932Z,65.28
2019-02-22T18:35:10.641Z,66.84
2019-02-22T18:37:39.340Z,67.70
2019-02-22T18:40:10.844Z,66.77
2019-02-22T18:42:39.529Z,66.18
2019-02-22T18:45:09.620Z,66.53
2019-02-22T18:47:38.358Z,64.67
2019-02-22T18:50:11.348Z,65.10
2019-02-22T18:52:40.060Z,64.99
2019-02-22T18:55:11.018Z,63.81
2019-02-22T18:57:39.726Z,63.81
2019-02-22T19:00:16.730Z,65.12
2019-02-22T19:02:46.112Z,63.78
2019-02-22T19:05:14.921Z,63.61
2019-02-22T19:07:43.780Z,64.98
2019-02-22T19:10:17.276Z,64.98
2019-02-22T19:12:45.994Z,66.26
2019-02-22T19:15:15.347Z,67.79
2019-02-22T19:17:44.038Z,67.79
2019-02-22T19:20:14.847Z,66.14
2019-02-22T19:22:43.689Z,66.14
2019-02-22T19:25:12.488Z,67.21
2019-02-22T19:27:41.314Z,68.10
2019-02-22T19:30:16.461Z,68.36
2019-02-22T19:36:26.153Z,67.47
2019-02-22T19:38:54.840Z,67.87
2019-02-22T19:41:23.538Z,66.92
2019-02-22T19:43:52.303Z,68.18
2019-02-22T19:46:20.999Z,66.94
2019-02-22T19:48:49.762Z,69.82
2019-02-22T19:51:18.505Z,69.33
2019-02-22T19:53:47.192Z,69.72
2019-02-22T19:56:15.899Z,69.72
2019-02-22T19:58:47.674Z,70.64
2019-02-22T20:01:16.378Z,70.60
2019-02-22T20:03:45.063Z,72.36
2019-02-22T20:06:13.825Z,73.35
2019-02-22T20:08:42.529Z,71.61
2019-02-22T20:11:11.224Z,70.82
2019-02-22T20:13:39.957Z,71.92
2019-02-22T20:16:08.666Z,70.05
2019-02-22T20:18:37.373Z,70.84
2019-02-22T20:21:06.114Z,70.18
2019-02-22T20:23:34.815Z,70.91
2019-02-22T20:26:03.509Z,71.50
2019-02-22T20:28:32.245Z,71.47
2019-02-22T20:31:00.950Z,72.92
2019-02-22T20:33:32.120Z,71.39
2019-02-22T20:36:00.858Z,71.67
2019-02-22T20:38:29.568Z,73.12
2019-02-22T20:40:58.249Z,71.98
2019-02-22T20:43:26.989Z,71.70
2019-02-22T20:45:55.686Z,71.39
2019-02-22T20:48:27.081Z,71.34
2019-02-22T20:50:55.828Z,71.03
2019-02-22T20:53:24.527Z,69.94
2019-02-22T20:55:53.243Z,70.49
2019-02-22T20:58:21.962Z,71.15
2019-02-22T21:00:50.646Z,71.27
2019-02-22T21:03:19.350Z,71.52
2019-02-22T21:05:48.080Z,70.60
2019-02-22T21:08:16.779Z,71.19
2019-02-22T21:10:45.470Z,70.75
2019-02-22T21:13:14.201Z,69.94
2019-02-22T21:15:45.632Z,71.59
2019-02-22T21:18:16.519Z,71.59
2019-02-22T21:20:44.803Z,70.94
2019-02-22T21:23:13.505Z,69.89
2019-02-22T21:25:42.204Z,71.31
2019-02-22T21:28:10.932Z,71.80
2019-02-22T21:30:39.626Z,69.81
2019-02-22T21:33:08.323Z,69.55
2019-02-22T21:35:37.057Z,68.92
2019-02-22T21:38:05.754Z,68.54
2019-02-22T21:40:34.556Z,70.30
2019-02-22T21:43:03.264Z,70.88
2019-02-22T21:45:31.955Z,70.79
2019-02-22T21:48:00.651Z,71.45
2019-02-22T21:50:29.324Z,71.45
2019-02-22T21:52:58.002Z,71.55
2019-02-22T21:55:26.711Z,70.26
2019-02-22T21:57:55.439Z,71.80
2019-02-22T22:00:29.010Z,72.99
2019-02-22T22:02:57.700Z,72.86
2019-02-22T22:05:27.204Z,72.00
2019-02-22T22:07:55.910Z,71.66
2019-02-22T22:10:24.602Z,72.12
2019-02-22T22:12:53.257Z,72.64
2019-02-22T22:15:21.982Z,72.77
2019-02-22T22:17:50.674Z,71.74
2019-02-22T22:20:19.394Z,70.29
2019-02-22T22:22:48.018Z,72.02
2019-02-22T22:25:17.053Z,70.55
2019-02-22T22:27:45.709Z,71.24
2019-02-22T22:30:15.140Z,72.21
2019-02-22T22:32:43.832Z,72.29
2019-02-22T22:35:14.714Z,74.06
2019-02-22T22:37:43.331Z,72.57
2019-02-22T22:40:11.959Z,71.84
2019-02-22T22:42:40.697Z,72.93
2019-02-22T22:45:17.025Z,72.36
2019-02-22T22:47:45.708Z,73.34
2019-02-22T22:50:15.759Z,73.80
2019-02-22T22:52:44.468Z,75.07
2019-02-22T22:55:13.121Z,74.67
2019-02-22T22:57:41.812Z,75.20
2019-02-22T23:00:29.833Z,76.72
2019-02-22T23:02:58.452Z,77.87
2019-02-22T23:05:27.081Z,77.34
2019-02-22T23:07:56.668Z,77.52
2019-02-22T23:10:25.306Z,78.42
2019-02-22T23:12:53.923Z,77.08
2019-02-22T23:15:22.593Z,78.52
2019-02-22T23:17:51.299Z,77.23
2019-02-22T23:20:19.997Z,77.83
2019-02-22T23:22:48.738Z,78.05
2019-02-22T23:25:17.504Z,78.01
2019-02-22T23:27:46.210Z,77.79
2019-02-22T23:30:14.950Z,77.86
2019-02-22T23:32:43.573Z,78.29
2019-02-22T23:35:12.202Z,79.17
2019-02-22T23:37:40.981Z,80.90
2019-02-22T23:40:09.619Z,81.97
2019-02-22T23:42:38.321Z,80.32
2019-02-22T23:45:07.490Z,79.08
2019-02-22T23:47:36.114Z,79.08
2019-02-22T23:50:06.541Z,77.52
2019-02-22T23:52:35.268Z,76.53
2019-02-22T23:55:03.991Z,77.64
2019-02-22T23:57:32.622Z,78.31
